sensor_id;sensor_type;location;lat;lon;timestamp;P1;durP1;ratioP1;P2;durP2;ratioP2
14316;SDS011;7242;50.858;6.586;2022-08-25T00:00:01;4.43;;;2.70;;
14316;SDS011;7242;50.858;6.586;2022-08-25T00:03:05;3.27;;;2.53;;
14316;SDS011;7242;50.858;6.586;2022-08-25T00:06:05;4.93;;;2.70;;
14316;SDS011;7242;50.858;6.586;2022-08-25T00:09:07;4.70;;;2.63;;
14316;SDS011;7242;50.858;6.586;2022-08-25T00:12:09;6.20;;;2.67;;
14316;SDS011;7242;50.858;6.586;2022-08-25T00:15:11;4.73;;;2.80;;
14316;SDS011;7242;50.858;6.586;2022-08-25T00:18:12;3.90;;;3.00;;
14316;SDS011;7242;50.858;6.586;2022-08-25T00:21:13;3.60;;;2.50;;
14316;SDS011;7242;50.858;6.586;2022-08-25T00:24:16;4.97;;;2.60;;
14316;SDS011;7242;50.858;6.586;2022-08-25T00:27:17;4.00;;;2.80;;
14316;SDS011;7242;50.858;6.586;2022-08-25T00:30:18;3.43;;;2.50;;
14316;SDS011;7242;50.858;6.586;2022-08-25T00:33:19;6.67;;;2.77;;
14316;SDS011;7242;50.858;6.586;2022-08-25T00:36:20;3.87;;;2.73;;
14316;SDS011;7242;50.858;6.586;2022-08-25T00:39:21;3.90;;;2.77;;
14316;SDS011;7242;50.858;6.586;2022-08-25T00:42:23;3.60;;;2.70;;
14316;SDS011;7242;50.858;6.586;2022-08-25T00:45:25;4.60;;;2.60;;
14316;SDS011;7242;50.858;6.586;2022-08-25T00:48:26;4.07;;;3.00;;
14316;SDS011;7242;50.858;6.586;2022-08-25T00:54:37;3.83;;;2.83;;
14316;SDS011;7242;50.858;6.586;2022-08-25T00:57:42;3.93;;;2.57;;
14316;SDS011;7242;50.858;6.586;2022-08-25T01:00:55;4.77;;;2.63;;
14316;SDS011;7242;50.858;6.586;2022-08-25T01:03:56;5.60;;;2.83;;
14316;SDS011;7242;50.858;6.586;2022-08-25T01:06:57;3.00;;;2.70;;
14316;SDS011;7242;50.858;6.586;2022-08-25T01:09:59;3.57;;;2.60;;
14316;SDS011;7242;50.858;6.586;2022-08-25T01:17:22;5.00;;;2.60;;
14316;SDS011;7242;50.858;6.586;2022-08-25T01:20:28;4.53;;;2.40;;
14316;SDS011;7242;50.858;6.586;2022-08-25T01:23:31;4.40;;;2.57;;
14316;SDS011;7242;50.858;6.586;2022-08-25T01:26:33;3.60;;;2.70;;
14316;SDS011;7242;50.858;6.586;2022-08-25T01:29:35;4.40;;;2.60;;
14316;SDS011;7242;50.858;6.586;2022-08-25T01:32:37;5.07;;;2.70;;
14316;SDS011;7242;50.858;6.586;2022-08-25T01:35:39;7.27;;;3.00;;
14316;SDS011;7242;50.858;6.586;2022-08-25T01:38:39;6.63;;;2.70;;
14316;SDS011;7242;50.858;6.586;2022-08-25T01:44:47;4.73;;;2.90;;
14316;SDS011;7242;50.858;6.586;2022-08-25T01:47:48;4.30;;;2.90;;
14316;SDS011;7242;50.858;6.586;2022-08-25T01:50:49;3.60;;;2.53;;
14316;SDS011;7242;50.858;6.586;2022-08-25T01:53:50;3.73;;;2.73;;
14316;SDS011;7242;50.858;6.586;2022-08-25T01:56:50;3.70;;;2.57;;
14316;SDS011;7242;50.858;6.586;2022-08-25T01:59:51;5.27;;;2.90;;
14316;SDS011;7242;50.858;6.586;2022-08-25T02:02:52;3.73;;;2.87;;
14316;SDS011;7242;50.858;6.586;2022-08-25T02:05:54;5.70;;;2.90;;
14316;SDS011;7242;50.858;6.586;2022-08-25T02:08:57;4.17;;;2.50;;
14316;SDS011;7242;50.858;6.586;2022-08-25T02:12:00;4.57;;;2.80;;
14316;SDS011;7242;50.858;6.586;2022-08-25T02:15:05;4.30;;;2.70;;
14316;SDS011;7242;50.858;6.586;2022-08-25T02:18:07;5.67;;;3.13;;
14316;SDS011;7242;50.858;6.586;2022-08-25T02:21:08;5.60;;;2.73;;
14316;SDS011;7242;50.858;6.586;2022-08-25T02:24:10;3.73;;;2.77;;
14316;SDS011;7242;50.858;6.586;2022-08-25T02:27:11;5.83;;;2.73;;
14316;SDS011;7242;50.858;6.586;2022-08-25T02:30:13;3.80;;;2.53;;
14316;SDS011;7242;50.858;6.586;2022-08-25T02:33:15;3.20;;;2.50;;
14316;SDS011;7242;50.858;6.586;2022-08-25T02:36:15;3.70;;;2.63;;
14316;SDS011;7242;50.858;6.586;2022-08-25T02:39:17;3.87;;;2.80;;
14316;SDS011;7242;50.858;6.586;2022-08-25T02:42:17;6.73;;;3.10;;
14316;SDS011;7242;50.858;6.586;2022-08-25T02:48:56;4.63;;;3.00;;
14316;SDS011;7242;50.858;6.586;2022-08-25T02:51:57;3.20;;;2.90;;
14316;SDS011;7242;50.858;6.586;2022-08-25T02:54:59;4.13;;;2.70;;
14316;SDS011;7242;50.858;6.586;2022-08-25T02:58:03;3.77;;;3.00;;
14316;SDS011;7242;50.858;6.586;2022-08-25T03:01:04;3.70;;;2.67;;
14316;SDS011;7242;50.858;6.586;2022-08-25T03:04:06;3.40;;;2.70;;
14316;SDS011;7242;50.858;6.586;2022-08-25T03:07:08;2.90;;;2.70;;
14316;SDS011;7242;50.858;6.586;2022-08-25T03:10:12;3.40;;;2.93;;
14316;SDS011;7242;50.858;6.586;2022-08-25T03:13:16;4.77;;;3.10;;
14316;SDS011;7242;50.858;6.586;2022-08-25T03:16:17;3.83;;;3.10;;
14316;SDS011;7242;50.858;6.586;2022-08-25T03:23:42;5.37;;;2.77;;
14316;SDS011;7242;50.858;6.586;2022-08-25T03:26:43;4.00;;;3.07;;
14316;SDS011;7242;50.858;6.586;2022-08-25T03:29:52;5.83;;;3.00;;
14316;SDS011;7242;50.858;6.586;2022-08-25T03:37:17;4.87;;;3.20;;
14316;SDS011;7242;50.858;6.586;2022-08-25T03:40:18;4.97;;;3.00;;
14316;SDS011;7242;50.858;6.586;2022-08-25T03:43:19;3.70;;;3.33;;
14316;SDS011;7242;50.858;6.586;2022-08-25T03:46:24;4.47;;;3.37;;
14316;SDS011;7242;50.858;6.586;2022-08-25T03:49:30;4.40;;;3.23;;
14316;SDS011;7242;50.858;6.586;2022-08-25T03:52:31;4.13;;;3.30;;
14316;SDS011;7242;50.858;6.586;2022-08-25T03:55:32;6.70;;;4.00;;
14316;SDS011;7242;50.858;6.586;2022-08-25T03:58:33;4.20;;;3.40;;
14316;SDS011;7242;50.858;6.586;2022-08-25T04:01:35;3.77;;;3.47;;
14316;SDS011;7242;50.858;6.586;2022-08-25T04:04:37;4.87;;;3.33;;
14316;SDS011;7242;50.858;6.586;2022-08-25T04:07:38;5.20;;;3.30;;
14316;SDS011;7242;50.858;6.586;2022-08-25T04:10:39;3.70;;;3.40;;
14316;SDS011;7242;50.858;6.586;2022-08-25T04:13:40;5.33;;;3.57;;
14316;SDS011;7242;50.858;6.586;2022-08-25T04:16:41;6.07;;;3.30;;
14316;SDS011;7242;50.858;6.586;2022-08-25T04:19:42;4.70;;;3.50;;
14316;SDS011;7242;50.858;6.586;2022-08-25T04:22:43;5.30;;;3.30;;
14316;SDS011;7242;50.858;6.586;2022-08-25T04:25:43;3.90;;;3.00;;
14316;SDS011;7242;50.858;6.586;2022-08-25T04:28:45;6.83;;;3.37;;
14316;SDS011;7242;50.858;6.586;2022-08-25T04:31:47;6.90;;;3.43;;
14316;SDS011;7242;50.858;6.586;2022-08-25T04:34:49;4.97;;;3.43;;
14316;SDS011;7242;50.858;6.586;2022-08-25T04:37:50;4.87;;;3.10;;
14316;SDS011;7242;50.858;6.586;2022-08-25T04:40:54;4.60;;;3.23;;
14316;SDS011;7242;50.858;6.586;2022-08-25T04:43:57;4.93;;;3.87;;
14316;SDS011;7242;50.858;6.586;2022-08-25T04:46:59;4.87;;;3.27;;
14316;SDS011;7242;50.858;6.586;2022-08-25T04:50:00;4.20;;;3.80;;
14316;SDS011;7242;50.858;6.586;2022-08-25T04:53:01;4.40;;;3.40;;
14316;SDS011;7242;50.858;6.586;2022-08-25T04:56:04;4.30;;;3.40;;
14316;SDS011;7242;50.858;6.586;2022-08-25T04:59:07;4.53;;;3.37;;
14316;SDS011;7242;50.858;6.586;2022-08-25T05:02:09;4.90;;;3.40;;
14316;SDS011;7242;50.858;6.586;2022-08-25T05:05:09;4.50;;;3.20;;
14316;SDS011;7242;50.858;6.586;2022-08-25T05:08:10;4.73;;;3.27;;
14316;SDS011;7242;50.858;6.586;2022-08-25T05:11:12;4.10;;;3.30;;
14316;SDS011;7242;50.858;6.586;2022-08-25T05:14:13;6.57;;;3.47;;
14316;SDS011;7242;50.858;6.586;2022-08-25T05:17:17;7.57;;;3.60;;
14316;SDS011;7242;50.858;6.586;2022-08-25T05:20:18;4.97;;;3.80;;
14316;SDS011;7242;50.858;6.586;2022-08-25T05:23:19;7.13;;;3.60;;
14316;SDS011;7242;50.858;6.586;2022-08-25T05:26:21;5.10;;;3.40;;
14316;SDS011;7242;50.858;6.586;2022-08-25T05:29:23;4.07;;;2.87;;
14316;SDS011;7242;50.858;6.586;2022-08-25T05:32:23;4.00;;;3.00;;
14316;SDS011;7242;50.858;6.586;2022-08-25T05:35:24;6.87;;;2.90;;
14316;SDS011;7242;50.858;6.586;2022-08-25T05:38:25;4.70;;;3.00;;
14316;SDS011;7242;50.858;6.586;2022-08-25T05:41:28;10.40;;;3.40;;
14316;SDS011;7242;50.858;6.586;2022-08-25T05:44:29;6.13;;;3.10;;
14316;SDS011;7242;50.858;6.586;2022-08-25T05:47:30;12.07;;;3.80;;
14316;SDS011;7242;50.858;6.586;2022-08-25T05:50:32;6.17;;;3.20;;
14316;SDS011;7242;50.858;6.586;2022-08-25T05:53:33;4.53;;;2.83;;
14316;SDS011;7242;50.858;6.586;2022-08-25T05:56:34;12.60;;;4.00;;
14316;SDS011;7242;50.858;6.586;2022-08-25T05:59:35;10.10;;;3.60;;
14316;SDS011;7242;50.858;6.586;2022-08-25T06:02:36;8.53;;;3.50;;
14316;SDS011;7242;50.858;6.586;2022-08-25T06:05:44;12.07;;;3.80;;
14316;SDS011;7242;50.858;6.586;2022-08-25T06:08:45;25.37;;;4.87;;
14316;SDS011;7242;50.858;6.586;2022-08-25T06:11:47;22.83;;;4.33;;
14316;SDS011;7242;50.858;6.586;2022-08-25T06:14:48;19.63;;;4.23;;
14316;SDS011;7242;50.858;6.586;2022-08-25T06:17:49;18.10;;;4.50;;
14316;SDS011;7242;50.858;6.586;2022-08-25T06:20:51;14.57;;;3.70;;
14316;SDS011;7242;50.858;6.586;2022-08-25T06:23:52;20.30;;;4.00;;
14316;SDS011;7242;50.858;6.586;2022-08-25T06:26:53;12.63;;;3.43;;
14316;SDS011;7242;50.858;6.586;2022-08-25T06:29:54;9.27;;;3.17;;
14316;SDS011;7242;50.858;6.586;2022-08-25T06:32:55;13.93;;;3.33;;
14316;SDS011;7242;50.858;6.586;2022-08-25T06:35:56;9.13;;;2.93;;
14316;SDS011;7242;50.858;6.586;2022-08-25T06:38:56;10.67;;;3.00;;
14316;SDS011;7242;50.858;6.586;2022-08-25T06:41:57;7.00;;;3.07;;
14316;SDS011;7242;50.858;6.586;2022-08-25T06:44:59;6.37;;;2.83;;
14316;SDS011;7242;50.858;6.586;2022-08-25T06:48:00;4.53;;;2.60;;
14316;SDS011;7242;50.858;6.586;2022-08-25T06:51:08;4.77;;;2.53;;
14316;SDS011;7242;50.858;6.586;2022-08-25T06:54:11;5.17;;;2.60;;
14316;SDS011;7242;50.858;6.586;2022-08-25T06:57:11;3.97;;;2.20;;
14316;SDS011;7242;50.858;6.586;2022-08-25T07:00:13;5.47;;;2.20;;
14316;SDS011;7242;50.858;6.586;2022-08-25T07:03:14;4.13;;;2.20;;
14316;SDS011;7242;50.858;6.586;2022-08-25T07:06:15;4.18;;;2.10;;
14316;SDS011;7242;50.858;6.586;2022-08-25T07:09:17;2.70;;;1.70;;
14316;SDS011;7242;50.858;6.586;2022-08-25T07:12:18;4.40;;;2.13;;
14316;SDS011;7242;50.858;6.586;2022-08-25T07:15:21;2.92;;;1.95;;
14316;SDS011;7242;50.858;6.586;2022-08-25T07:18:22;3.70;;;1.88;;
14316;SDS011;7242;50.858;6.586;2022-08-25T07:21:23;3.75;;;1.90;;
14316;SDS011;7242;50.858;6.586;2022-08-25T07:24:25;5.70;;;1.75;;
14316;SDS011;7242;50.858;6.586;2022-08-25T07:27:26;5.93;;;1.90;;
14316;SDS011;7242;50.858;6.586;2022-08-25T07:30:26;7.32;;;2.10;;
14316;SDS011;7242;50.858;6.586;2022-08-25T07:33:27;4.43;;;1.98;;
14316;SDS011;7242;50.858;6.586;2022-08-25T07:36:31;5.38;;;2.00;;
14316;SDS011;7242;50.858;6.586;2022-08-25T07:39:32;9.27;;;1.90;;
14316;SDS011;7242;50.858;6.586;2022-08-25T07:42:33;9.77;;;1.67;;
14316;SDS011;7242;50.858;6.586;2022-08-25T07:45:35;6.68;;;1.80;;
14316;SDS011;7242;50.858;6.586;2022-08-25T07:48:38;3.55;;;1.73;;
14316;SDS011;7242;50.858;6.586;2022-08-25T07:51:39;5.85;;;1.42;;
14316;SDS011;7242;50.858;6.586;2022-08-25T07:54:40;6.43;;;1.55;;
14316;SDS011;7242;50.858;6.586;2022-08-25T07:57:41;6.28;;;1.70;;
14316;SDS011;7242;50.858;6.586;2022-08-25T08:00:41;4.95;;;1.63;;
14316;SDS011;7242;50.858;6.586;2022-08-25T08:03:47;5.03;;;1.70;;
14316;SDS011;7242;50.858;6.586;2022-08-25T08:06:48;5.50;;;1.70;;
14316;SDS011;7242;50.858;6.586;2022-08-25T08:09:50;5.88;;;1.90;;
14316;SDS011;7242;50.858;6.586;2022-08-25T08:12:52;4.22;;;1.80;;
14316;SDS011;7242;50.858;6.586;2022-08-25T08:15:53;4.55;;;1.70;;
14316;SDS011;7242;50.858;6.586;2022-08-25T08:18:55;4.65;;;1.65;;
14316;SDS011;7242;50.858;6.586;2022-08-25T08:21:56;5.63;;;1.92;;
14316;SDS011;7242;50.858;6.586;2022-08-25T08:24:57;7.07;;;1.85;;
14316;SDS011;7242;50.858;6.586;2022-08-25T08:27:58;8.23;;;1.80;;
14316;SDS011;7242;50.858;6.586;2022-08-25T08:30:59;5.13;;;1.65;;
14316;SDS011;7242;50.858;6.586;2022-08-25T08:33:59;10.43;;;2.13;;
14316;SDS011;7242;50.858;6.586;2022-08-25T08:37:00;6.78;;;2.00;;
14316;SDS011;7242;50.858;6.586;2022-08-25T08:40:03;10.88;;;2.10;;
14316;SDS011;7242;50.858;6.586;2022-08-25T08:43:06;8.60;;;2.50;;
14316;SDS011;7242;50.858;6.586;2022-08-25T08:46:17;6.38;;;2.00;;
14316;SDS011;7242;50.858;6.586;2022-08-25T08:49:29;10.43;;;2.30;;
14316;SDS011;7242;50.858;6.586;2022-08-25T08:55:43;8.70;;;2.08;;
14316;SDS011;7242;50.858;6.586;2022-08-25T08:58:48;5.35;;;1.77;;
14316;SDS011;7242;50.858;6.586;2022-08-25T09:02:04;4.95;;;2.15;;
14316;SDS011;7242;50.858;6.586;2022-08-25T09:05:16;5.57;;;2.03;;
14316;SDS011;7242;50.858;6.586;2022-08-25T09:08:19;2.17;;;1.70;;
14316;SDS011;7242;50.858;6.586;2022-08-25T09:18:11;3.63;;;1.90;;
14316;SDS011;7242;50.858;6.586;2022-08-25T09:21:33;6.43;;;2.10;;
14316;SDS011;7242;50.858;6.586;2022-08-25T09:28:12;3.95;;;1.85;;
14316;SDS011;7242;50.858;6.586;2022-08-25T09:31:22;4.70;;;2.10;;
14316;SDS011;7242;50.858;6.586;2022-08-25T09:34:27;5.75;;;1.90;;
14316;SDS011;7242;50.858;6.586;2022-08-25T09:37:31;7.47;;;1.90;;
14316;SDS011;7242;50.858;6.586;2022-08-25T09:40:33;6.13;;;2.03;;
14316;SDS011;7242;50.858;6.586;2022-08-25T09:43:39;3.13;;;1.90;;
14316;SDS011;7242;50.858;6.586;2022-08-25T09:46:45;3.50;;;1.90;;
14316;SDS011;7242;50.858;6.586;2022-08-25T09:50:06;4.60;;;2.10;;
14316;SDS011;7242;50.858;6.586;2022-08-25T09:53:15;5.43;;;1.80;;
14316;SDS011;7242;50.858;6.586;2022-08-25T09:56:18;5.38;;;1.92;;
14316;SDS011;7242;50.858;6.586;2022-08-25T09:59:27;7.00;;;1.80;;
14316;SDS011;7242;50.858;6.586;2022-08-25T10:02:33;3.70;;;1.73;;
14316;SDS011;7242;50.858;6.586;2022-08-25T10:05:36;2.42;;;1.52;;
14316;SDS011;7242;50.858;6.586;2022-08-25T10:09:04;3.33;;;1.60;;
14316;SDS011;7242;50.858;6.586;2022-08-25T10:15:43;2.70;;;1.55;;
14316;SDS011;7242;50.858;6.586;2022-08-25T10:18:44;5.85;;;1.70;;
14316;SDS011;7242;50.858;6.586;2022-08-25T10:22:01;6.07;;;1.80;;
14316;SDS011;7242;50.858;6.586;2022-08-25T10:25:05;3.30;;;1.50;;
14316;SDS011;7242;50.858;6.586;2022-08-25T10:28:13;2.55;;;1.70;;
14316;SDS011;7242;50.858;6.586;2022-08-25T10:31:35;5.60;;;1.75;;
14316;SDS011;7242;50.858;6.586;2022-08-25T10:34:48;4.13;;;1.73;;
14316;SDS011;7242;50.858;6.586;2022-08-25T10:41:02;5.65;;;1.58;;
14316;SDS011;7242;50.858;6.586;2022-08-25T10:44:14;3.47;;;1.98;;
14316;SDS011;7242;50.858;6.586;2022-08-25T11:07:40;3.67;;;1.80;;
14316;SDS011;7242;50.858;6.586;2022-08-25T11:10:55;4.75;;;2.05;;
14316;SDS011;7242;50.858;6.586;2022-08-25T11:17:15;3.25;;;1.77;;
14316;SDS011;7242;50.858;6.586;2022-08-25T11:20:18;2.90;;;1.60;;
14316;SDS011;7242;50.858;6.586;2022-08-25T11:23:42;2.38;;;1.38;;
14316;SDS011;7242;50.858;6.586;2022-08-25T11:26:50;2.72;;;1.63;;
14316;SDS011;7242;50.858;6.586;2022-08-25T11:29:58;3.08;;;1.58;;
14316;SDS011;7242;50.858;6.586;2022-08-25T11:33:06;2.42;;;1.73;;
14316;SDS011;7242;50.858;6.586;2022-08-25T11:36:20;4.28;;;1.70;;
14316;SDS011;7242;50.858;6.586;2022-08-25T11:58:40;4.68;;;1.50;;
14316;SDS011;7242;50.858;6.586;2022-08-25T12:04:53;3.10;;;1.63;;
14316;SDS011;7242;50.858;6.586;2022-08-25T12:21:28;4.93;;;1.67;;
14316;SDS011;7242;50.858;6.586;2022-08-25T12:31:00;4.60;;;1.42;;
14316;SDS011;7242;50.858;6.586;2022-08-25T12:34:15;4.65;;;1.50;;
14316;SDS011;7242;50.858;6.586;2022-08-25T12:37:25;3.35;;;1.90;;
14316;SDS011;7242;50.858;6.586;2022-08-25T12:40:29;3.50;;;1.60;;
14316;SDS011;7242;50.858;6.586;2022-08-25T12:43:40;3.95;;;2.00;;
14316;SDS011;7242;50.858;6.586;2022-08-25T12:46:43;2.28;;;1.80;;
14316;SDS011;7242;50.858;6.586;2022-08-25T12:49:44;3.78;;;1.77;;
14316;SDS011;7242;50.858;6.586;2022-08-25T12:52:45;2.60;;;1.58;;
14316;SDS011;7242;50.858;6.586;2022-08-25T12:55:55;7.13;;;1.55;;
14316;SDS011;7242;50.858;6.586;2022-08-25T13:08:45;4.40;;;1.73;;
14316;SDS011;7242;50.858;6.586;2022-08-25T13:11:55;1.90;;;1.70;;
14316;SDS011;7242;50.858;6.586;2022-08-25T13:15:12;3.35;;;2.00;;
14316;SDS011;7242;50.858;6.586;2022-08-25T13:18:19;3.67;;;1.70;;
14316;SDS011;7242;50.858;6.586;2022-08-25T13:21:30;3.13;;;1.70;;
14316;SDS011;7242;50.858;6.586;2022-08-25T13:24:40;2.40;;;1.70;;
14316;SDS011;7242;50.858;6.586;2022-08-25T13:27:43;3.20;;;1.73;;
14316;SDS011;7242;50.858;6.586;2022-08-25T13:30:54;1.92;;;1.70;;
14316;SDS011;7242;50.858;6.586;2022-08-25T13:33:59;3.17;;;1.90;;
14316;SDS011;7242;50.858;6.586;2022-08-25T13:37:06;5.50;;;1.90;;
14316;SDS011;7242;50.858;6.586;2022-08-25T13:40:31;2.45;;;1.70;;
14316;SDS011;7242;50.858;6.586;2022-08-25T13:43:36;3.20;;;1.85;;
14316;SDS011;7242;50.858;6.586;2022-08-25T13:46:37;2.97;;;1.60;;
14316;SDS011;7242;50.858;6.586;2022-08-25T13:49:40;4.07;;;1.85;;
14316;SDS011;7242;50.858;6.586;2022-08-25T13:52:49;3.00;;;1.63;;
14316;SDS011;7242;50.858;6.586;2022-08-25T13:55:58;3.50;;;1.80;;
14316;SDS011;7242;50.858;6.586;2022-08-25T13:59:01;3.45;;;1.52;;
14316;SDS011;7242;50.858;6.586;2022-08-25T14:02:04;2.58;;;1.90;;
14316;SDS011;7242;50.858;6.586;2022-08-25T14:05:06;2.67;;;1.65;;
14316;SDS011;7242;50.858;6.586;2022-08-25T14:08:26;4.28;;;1.70;;
14316;SDS011;7242;50.858;6.586;2022-08-25T14:11:39;2.33;;;1.63;;
14316;SDS011;7242;50.858;6.586;2022-08-25T14:14:42;3.45;;;1.67;;
14316;SDS011;7242;50.858;6.586;2022-08-25T14:21:07;2.00;;;1.45;;
14316;SDS011;7242;50.858;6.586;2022-08-25T14:24:13;2.13;;;1.58;;
14316;SDS011;7242;50.858;6.586;2022-08-25T14:27:16;2.80;;;1.80;;
14316;SDS011;7242;50.858;6.586;2022-08-25T14:30:18;3.63;;;1.70;;
14316;SDS011;7242;50.858;6.586;2022-08-25T14:33:19;2.40;;;1.65;;
14316;SDS011;7242;50.858;6.586;2022-08-25T14:36:23;2.70;;;1.50;;
14316;SDS011;7242;50.858;6.586;2022-08-25T14:39:24;3.22;;;1.80;;
14316;SDS011;7242;50.858;6.586;2022-08-25T14:42:26;1.90;;;1.38;;
14316;SDS011;7242;50.858;6.586;2022-08-25T14:45:27;2.88;;;1.83;;
14316;SDS011;7242;50.858;6.586;2022-08-25T14:48:30;1.88;;;1.70;;
14316;SDS011;7242;50.858;6.586;2022-08-25T14:51:41;3.40;;;1.90;;
14316;SDS011;7242;50.858;6.586;2022-08-25T14:54:42;5.60;;;1.88;;
14316;SDS011;7242;50.858;6.586;2022-08-25T14:57:44;1.90;;;1.58;;
14316;SDS011;7242;50.858;6.586;2022-08-25T15:00:45;2.80;;;1.90;;
14316;SDS011;7242;50.858;6.586;2022-08-25T15:03:47;2.42;;;1.80;;
14316;SDS011;7242;50.858;6.586;2022-08-25T15:06:54;3.00;;;1.70;;
14316;SDS011;7242;50.858;6.586;2022-08-25T15:09:56;3.33;;;1.90;;
14316;SDS011;7242;50.858;6.586;2022-08-25T15:12:57;2.75;;;1.90;;
14316;SDS011;7242;50.858;6.586;2022-08-25T15:15:58;5.47;;;2.15;;
14316;SDS011;7242;50.858;6.586;2022-08-25T15:18:59;2.97;;;2.00;;
14316;SDS011;7242;50.858;6.586;2022-08-25T15:22:01;6.07;;;2.30;;
14316;SDS011;7242;50.858;6.586;2022-08-25T15:25:02;3.45;;;2.20;;
14316;SDS011;7242;50.858;6.586;2022-08-25T15:28:04;3.20;;;2.20;;
14316;SDS011;7242;50.858;6.586;2022-08-25T15:31:06;3.78;;;2.00;;
14316;SDS011;7242;50.858;6.586;2022-08-25T15:34:07;3.53;;;1.98;;
14316;SDS011;7242;50.858;6.586;2022-08-25T15:37:12;2.72;;;2.00;;
14316;SDS011;7242;50.858;6.586;2022-08-25T15:40:14;4.40;;;2.15;;
14316;SDS011;7242;50.858;6.586;2022-08-25T15:43:15;2.33;;;2.00;;
14316;SDS011;7242;50.858;6.586;2022-08-25T15:46:18;3.10;;;2.28;;
14316;SDS011;7242;50.858;6.586;2022-08-25T15:49:20;2.55;;;1.95;;
14316;SDS011;7242;50.858;6.586;2022-08-25T15:52:21;2.63;;;1.88;;
14316;SDS011;7242;50.858;6.586;2022-08-25T15:55:21;2.80;;;2.10;;
14316;SDS011;7242;50.858;6.586;2022-08-25T15:58:22;2.63;;;2.35;;
14316;SDS011;7242;50.858;6.586;2022-08-25T16:01:24;3.60;;;2.10;;
14316;SDS011;7242;50.858;6.586;2022-08-25T16:04:26;3.92;;;2.00;;
14316;SDS011;7242;50.858;6.586;2022-08-25T16:07:28;5.10;;;2.20;;
14316;SDS011;7242;50.858;6.586;2022-08-25T16:10:33;2.90;;;2.33;;
14316;SDS011;7242;50.858;6.586;2022-08-25T16:13:35;5.32;;;2.10;;
14316;SDS011;7242;50.858;6.586;2022-08-25T16:16:36;2.72;;;2.10;;
14316;SDS011;7242;50.858;6.586;2022-08-25T16:19:37;2.70;;;2.10;;
14316;SDS011;7242;50.858;6.586;2022-08-25T16:22:38;3.95;;;2.13;;
14316;SDS011;7242;50.858;6.586;2022-08-25T16:25:40;4.50;;;2.35;;
14316;SDS011;7242;50.858;6.586;2022-08-25T16:28:42;2.78;;;2.20;;
14316;SDS011;7242;50.858;6.586;2022-08-25T16:31:44;2.17;;;1.95;;
14316;SDS011;7242;50.858;6.586;2022-08-25T16:34:44;2.45;;;2.25;;
14316;SDS011;7242;50.858;6.586;2022-08-25T16:37:45;3.75;;;2.25;;
14316;SDS011;7242;50.858;6.586;2022-08-25T16:40:46;2.90;;;2.30;;
14316;SDS011;7242;50.858;6.586;2022-08-25T16:43:47;2.42;;;2.20;;
14316;SDS011;7242;50.858;6.586;2022-08-25T16:46:49;4.05;;;2.03;;
14316;SDS011;7242;50.858;6.586;2022-08-25T16:49:53;2.40;;;2.20;;
14316;SDS011;7242;50.858;6.586;2022-08-25T16:52:54;3.42;;;2.00;;
14316;SDS011;7242;50.858;6.586;2022-08-25T16:56:13;3.20;;;2.20;;
14316;SDS011;7242;50.858;6.586;2022-08-25T16:59:14;5.03;;;1.95;;
14316;SDS011;7242;50.858;6.586;2022-08-25T17:02:16;3.60;;;2.35;;
14316;SDS011;7242;50.858;6.586;2022-08-25T17:05:17;2.72;;;2.22;;
14316;SDS011;7242;50.858;6.586;2022-08-25T17:08:18;3.58;;;2.35;;
14316;SDS011;7242;50.858;6.586;2022-08-25T17:11:29;4.50;;;2.22;;
14316;SDS011;7242;50.858;6.586;2022-08-25T17:14:33;3.40;;;2.30;;
14316;SDS011;7242;50.858;6.586;2022-08-25T17:17:34;2.15;;;2.00;;
14316;SDS011;7242;50.858;6.586;2022-08-25T17:20:35;2.95;;;2.30;;
14316;SDS011;7242;50.858;6.586;2022-08-25T17:23:37;5.82;;;2.80;;
14316;SDS011;7242;50.858;6.586;2022-08-25T17:26:42;4.15;;;2.75;;
14316;SDS011;7242;50.858;6.586;2022-08-25T17:29:46;2.90;;;2.67;;
14316;SDS011;7242;50.858;6.586;2022-08-25T17:32:47;2.92;;;2.40;;
14316;SDS011;7242;50.858;6.586;2022-08-25T17:35:48;3.00;;;2.60;;
14316;SDS011;7242;50.858;6.586;2022-08-25T17:38:53;3.73;;;2.30;;
14316;SDS011;7242;50.858;6.586;2022-08-25T17:41:54;3.83;;;2.30;;
14316;SDS011;7242;50.858;6.586;2022-08-25T17:44:55;2.80;;;2.23;;
14316;SDS011;7242;50.858;6.586;2022-08-25T17:47:56;2.85;;;2.35;;
14316;SDS011;7242;50.858;6.586;2022-08-25T17:50:57;2.80;;;2.10;;
14316;SDS011;7242;50.858;6.586;2022-08-25T17:53:59;1.90;;;1.80;;
14316;SDS011;7242;50.858;6.586;2022-08-25T17:57:00;3.73;;;1.97;;
14316;SDS011;7242;50.858;6.586;2022-08-25T18:00:00;3.03;;;2.43;;
14316;SDS011;7242;50.858;6.586;2022-08-25T18:03:08;5.03;;;2.57;;
14316;SDS011;7242;50.858;6.586;2022-08-25T18:06:10;5.00;;;2.20;;
14316;SDS011;7242;50.858;6.586;2022-08-25T18:09:12;3.47;;;2.20;;
14316;SDS011;7242;50.858;6.586;2022-08-25T18:12:13;3.40;;;2.57;;
14316;SDS011;7242;50.858;6.586;2022-08-25T18:15:14;5.33;;;2.43;;
14316;SDS011;7242;50.858;6.586;2022-08-25T18:18:15;4.53;;;2.30;;
14316;SDS011;7242;50.858;6.586;2022-08-25T18:21:16;3.47;;;2.20;;
14316;SDS011;7242;50.858;6.586;2022-08-25T18:24:19;3.63;;;2.20;;
14316;SDS011;7242;50.858;6.586;2022-08-25T18:27:20;2.67;;;2.30;;
14316;SDS011;7242;50.858;6.586;2022-08-25T18:30:21;3.60;;;2.10;;
14316;SDS011;7242;50.858;6.586;2022-08-25T18:33:22;2.47;;;2.20;;
14316;SDS011;7242;50.858;6.586;2022-08-25T18:36:23;2.37;;;2.17;;
14316;SDS011;7242;50.858;6.586;2022-08-25T18:39:24;2.60;;;2.40;;
14316;SDS011;7242;50.858;6.586;2022-08-25T18:42:43;3.33;;;2.33;;
14316;SDS011;7242;50.858;6.586;2022-08-25T18:45:45;2.57;;;2.20;;
14316;SDS011;7242;50.858;6.586;2022-08-25T18:48:47;3.23;;;2.17;;
14316;SDS011;7242;50.858;6.586;2022-08-25T18:51:48;2.70;;;2.50;;
14316;SDS011;7242;50.858;6.586;2022-08-25T18:54:49;3.57;;;2.60;;
14316;SDS011;7242;50.858;6.586;2022-08-25T18:57:50;2.93;;;2.47;;
14316;SDS011;7242;50.858;6.586;2022-08-25T19:00:50;2.60;;;2.40;;
14316;SDS011;7242;50.858;6.586;2022-08-25T19:03:52;2.40;;;2.20;;
14316;SDS011;7242;50.858;6.586;2022-08-25T19:06:52;3.37;;;2.10;;
14316;SDS011;7242;50.858;6.586;2022-08-25T19:09:53;3.13;;;2.57;;
14316;SDS011;7242;50.858;6.586;2022-08-25T19:12:55;2.73;;;2.53;;
14316;SDS011;7242;50.858;6.586;2022-08-25T19:15:57;4.73;;;2.40;;
14316;SDS011;7242;50.858;6.586;2022-08-25T19:18:58;3.00;;;2.50;;
14316;SDS011;7242;50.858;6.586;2022-08-25T19:21:59;2.97;;;2.67;;
14316;SDS011;7242;50.858;6.586;2022-08-25T19:25:00;2.67;;;2.33;;
14316;SDS011;7242;50.858;6.586;2022-08-25T19:28:01;2.80;;;2.60;;
14316;SDS011;7242;50.858;6.586;2022-08-25T19:31:04;3.17;;;2.40;;
14316;SDS011;7242;50.858;6.586;2022-08-25T19:34:07;3.90;;;2.90;;
14316;SDS011;7242;50.858;6.586;2022-08-25T19:37:10;3.33;;;3.03;;
14316;SDS011;7242;50.858;6.586;2022-08-25T19:40:13;3.93;;;2.87;;
14316;SDS011;7242;50.858;6.586;2022-08-25T19:43:15;3.77;;;3.30;;
14316;SDS011;7242;50.858;6.586;2022-08-25T19:46:17;4.47;;;3.47;;
14316;SDS011;7242;50.858;6.586;2022-08-25T19:49:20;5.27;;;3.53;;
14316;SDS011;7242;50.858;6.586;2022-08-25T19:52:25;5.97;;;3.50;;
14316;SDS011;7242;50.858;6.586;2022-08-25T19:55:25;3.37;;;2.90;;
14316;SDS011;7242;50.858;6.586;2022-08-25T19:58:27;3.63;;;2.97;;
14316;SDS011;7242;50.858;6.586;2022-08-25T20:01:27;4.90;;;2.80;;
14316;SDS011;7242;50.858;6.586;2022-08-25T20:04:33;3.40;;;2.90;;
14316;SDS011;7242;50.858;6.586;2022-08-25T20:07:34;5.03;;;3.07;;
14316;SDS011;7242;50.858;6.586;2022-08-25T20:10:35;3.00;;;2.70;;
14316;SDS011;7242;50.858;6.586;2022-08-25T20:13:36;3.77;;;2.70;;
14316;SDS011;7242;50.858;6.586;2022-08-25T20:16:37;4.43;;;2.40;;
14316;SDS011;7242;50.858;6.586;2022-08-25T20:19:38;3.63;;;2.80;;
14316;SDS011;7242;50.858;6.586;2022-08-25T20:22:39;3.23;;;2.70;;
14316;SDS011;7242;50.858;6.586;2022-08-25T20:25:40;2.60;;;2.40;;
14316;SDS011;7242;50.858;6.586;2022-08-25T20:28:42;3.77;;;2.47;;
14316;SDS011;7242;50.858;6.586;2022-08-25T20:31:42;5.23;;;2.80;;
14316;SDS011;7242;50.858;6.586;2022-08-25T20:34:43;3.53;;;2.50;;
14316;SDS011;7242;50.858;6.586;2022-08-25T20:37:46;4.57;;;2.83;;
14316;SDS011;7242;50.858;6.586;2022-08-25T20:40:47;4.80;;;3.00;;